sensor_id;sensor_type;location;lat;lon;timestamp;temperature;humidity
75442;DHT22;64019;48.312;14.226;2023-02-01T00:01:58;2.90;99.90
75442;DHT22;64019;48.312;14.226;2023-02-01T00:04:23;3.00;99.90
75442;DHT22;64019;48.312;14.226;2023-02-01T00:06:49;3.00;99.90
75442;DHT22;64019;48.312;14.226;2023-02-01T00:09:14;3.00;99.90
75442;DHT22;64019;48.312;14.226;2023-02-01T00:11:40;3.00;99.90
75442;DHT22;64019;48.312;14.226;2023-02-01T00:14:06;3.10;99.90
75442;DHT22;64019;48.312;14.226;2023-02-01T00:16:32;3.10;99.90
75442;DHT22;64019;48.312;14.226;2023-02-01T00:19:00;3.10;99.90
75442;DHT22;64019;48.312;14.226;2023-02-01T00:50:30;3.10;99.90
75442;DHT22;64019;48.312;14.226;2023-02-01T00:53:24;3.20;99.90
75442;DHT22;64019;48.312;14.226;2023-02-01T00:59:50;3.20;99.90
75442;DHT22;64019;48.312;14.226;2023-02-01T01:10:25;3.30;99.90
75442;DHT22;64019;48.312;14.226;2023-02-01T01:58:01;3.30;99.90
75442;DHT22;64019;48.312;14.226;2023-02-01T02:11:14;3.40;99.90
75442;DHT22;64019;48.312;14.226;2023-02-01T03:17:44;3.70;99.90
75442;DHT22;64019;48.312;14.226;2023-02-01T03:23:41;3.70;99.90
75442;DHT22;64019;48.312;14.226;2023-02-01T04:44:59;4.40;99.90
75442;DHT22;64019;48.312;14.226;2023-02-01T04:47:24;4.40;99.90
75442;DHT22;64019;48.312;14.226;2023-02-01T04:49:50;4.50;99.90
75442;DHT22;64019;48.312;14.226;2023-02-01T04:52:16;4.50;99.90
75442;DHT22;64019;48.312;14.226;2023-02-01T04:54:41;4.50;99.90
75442;DHT22;64019;48.312;14.226;2023-02-01T04:57:07;4.60;99.90
75442;DHT22;64019;48.312;14.226;2023-02-01T04:59:32;4.60;99.90
75442;DHT22;64019;48.312;14.226;2023-02-01T05:01:58;4.60;99.90
75442;DHT22;64019;48.312;14.226;2023-02-01T05:04:24;4.70;99.90
75442;DHT22;64019;48.312;14.226;2023-02-01T05:06:50;4.70;99.90
75442;DHT22;64019;48.312;14.226;2023-02-01T05:09:15;4.80;99.90
75442;DHT22;64019;48.312;14.226;2023-02-01T05:11:41;4.80;99.90
75442;DHT22;64019;48.312;14.226;2023-02-01T05:14:25;4.80;99.90
75442;DHT22;64019;48.312;14.226;2023-02-01T05:16:51;4.90;99.90
75442;DHT22;64019;48.312;14.226;2023-02-01T05:19:17;4.90;99.90
75442;DHT22;64019;48.312;14.226;2023-02-01T05:21:42;4.90;99.90
75442;DHT22;64019;48.312;14.226;2023-02-01T05:24:08;4.90;99.90
75442;DHT22;64019;48.312;14.226;2023-02-01T05:26:45;4.90;99.90
75442;DHT22;64019;48.312;14.226;2023-02-01T05:29:11;5.00;99.90
75442;DHT22;64019;48.312;14.226;2023-02-01T05:31:37;4.90;99.90
75442;DHT22;64019;48.312;14.226;2023-02-01T05:34:03;4.90;99.90
75442;DHT22;64019;48.312;14.226;2023-02-01T05:36:29;4.90;99.90
75442;DHT22;64019;48.312;14.226;2023-02-01T05:38:54;4.90;99.90
75442;DHT22;64019;48.312;14.226;2023-02-01T05:41:20;4.80;99.90
75442;DHT22;64019;48.312;14.226;2023-02-01T05:43:46;4.90;99.90
75442;DHT22;64019;48.312;14.226;2023-02-01T05:46:11;4.90;99.90
75442;DHT22;64019;48.312;14.226;2023-02-01T05:48:41;4.90;99.90
75442;DHT22;64019;48.312;14.226;2023-02-01T05:51:08;4.90;99.90
75442;DHT22;64019;48.312;14.226;2023-02-01T05:53:33;4.90;99.90
75442;DHT22;64019;48.312;14.226;2023-02-01T05:55:59;4.90;99.90
75442;DHT22;64019;48.312;14.226;2023-02-01T05:58:25;4.90;99.90
75442;DHT22;64019;48.312;14.226;2023-02-01T06:00:51;4.90;99.90
75442;DHT22;64019;48.312;14.226;2023-02-01T06:03:16;4.80;99.90
75442;DHT22;64019;48.312;14.226;2023-02-01T06:05:45;4.80;99.90
75442;DHT22;64019;48.312;14.226;2023-02-01T06:08:11;4.80;99.90
75442;DHT22;64019;48.312;14.226;2023-02-01T06:10:37;4.90;99.90
75442;DHT22;64019;48.312;14.226;2023-02-01T06:13:03;4.90;99.90
75442;DHT22;64019;48.312;14.226;2023-02-01T06:15:29;4.90;99.90
75442;DHT22;64019;48.312;14.226;2023-02-01T06:17:54;4.90;99.90
75442;DHT22;64019;48.312;14.226;2023-02-01T06:20:20;4.90;99.90
75442;DHT22;64019;48.312;14.226;2023-02-01T06:22:46;4.90;99.90
75442;DHT22;64019;48.312;14.226;2023-02-01T06:25:12;4.90;99.90
75442;DHT22;64019;48.312;14.226;2023-02-01T06:27:38;4.90;99.90
75442;DHT22;64019;48.312;14.226;2023-02-01T06:30:04;4.90;99.90
75442;DHT22;64019;48.312;14.226;2023-02-01T06:32:31;4.90;99.90
75442;DHT22;64019;48.312;14.226;2023-02-01T06:34:56;4.90;99.90
75442;DHT22;64019;48.312;14.226;2023-02-01T06:37:23;4.90;99.90
75442;DHT22;64019;48.312;14.226;2023-02-01T06:39:50;4.90;99.90
75442;DHT22;64019;48.312;14.226;2023-02-01T06:42:16;4.90;99.90
75442;DHT22;64019;48.312;14.226;2023-02-01T06:44:41;4.90;99.90
75442;DHT22;64019;48.312;14.226;2023-02-01T06:47:07;4.90;99.90
75442;DHT22;64019;48.312;14.226;2023-02-01T06:49:33;4.90;99.90
75442;DHT22;64019;48.312;14.226;2023-02-01T06:51:58;4.90;99.90
75442;DHT22;64019;48.312;14.226;2023-02-01T06:54:27;4.90;99.90
75442;DHT22;64019;48.312;14.226;2023-02-01T06:56:53;4.90;99.90
75442;DHT22;64019;48.312;14.226;2023-02-01T06:59:19;4.90;99.90
75442;DHT22;64019;48.312;14.226;2023-02-01T07:01:45;4.90;99.90
75442;DHT22;64019;48.312;14.226;2023-02-01T07:04:11;4.90;99.90
75442;DHT22;64019;48.312;14.226;2023-02-01T07:06:37;4.90;99.90
75442;DHT22;64019;48.312;14.226;2023-02-01T07:09:03;4.90;99.90
75442;DHT22;64019;48.312;14.226;2023-02-01T07:11:29;4.90;99.90
75442;DHT22;64019;48.312;14.226;2023-02-01T07:13:56;4.90;99.90
75442;DHT22;64019;48.312;14.226;2023-02-01T07:16:21;4.90;99.90
75442;DHT22;64019;48.312;14.226;2023-02-01T07:18:49;4.90;99.90
75442;DHT22;64019;48.312;14.226;2023-02-01T07:21:14;4.90;99.90
75442;DHT22;64019;48.312;14.226;2023-02-01T07:23:40;4.90;99.90
75442;DHT22;64019;48.312;14.226;2023-02-01T07:26:08;4.90;99.90
75442;DHT22;64019;48.312;14.226;2023-02-01T07:28:35;4.80;99.90
75442;DHT22;64019;48.312;14.226;2023-02-01T07:31:05;4.90;99.90
75442;DHT22;64019;48.312;14.226;2023-02-01T07:33:31;4.90;99.90
75442;DHT22;64019;48.312;14.226;2023-02-01T07:35:57;4.90;99.90
75442;DHT22;64019;48.312;14.226;2023-02-01T07:38:22;4.90;99.90
75442;DHT22;64019;48.312;14.226;2023-02-01T07:40:49;4.90;99.90
75442;DHT22;64019;48.312;14.226;2023-02-01T07:43:15;4.90;99.90
75442;DHT22;64019;48.312;14.226;2023-02-01T07:45:41;4.90;99.90
75442;DHT22;64019;48.312;14.226;2023-02-01T07:48:07;4.90;99.90
75442;DHT22;64019;48.312;14.226;2023-02-01T07:50:32;4.90;99.90
75442;DHT22;64019;48.312;14.226;2023-02-01T07:52:59;4.90;99.90
75442;DHT22;64019;48.312;14.226;2023-02-01T07:55:26;5.00;99.90
75442;DHT22;64019;48.312;14.226;2023-02-01T07:57:51;5.00;99.90
75442;DHT22;64019;48.312;14.226;2023-02-01T08:00:18;5.00;99.90
75442;DHT22;64019;48.312;14.226;2023-02-01T08:03:03;5.00;99.90
75442;DHT22;64019;48.312;14.226;2023-02-01T08:05:29;5.00;99.90
75442;DHT22;64019;48.312;14.226;2023-02-01T08:07:55;5.00;99.90
75442;DHT22;64019;48.312;14.226;2023-02-01T08:10:20;5.00;99.90
75442;DHT22;64019;48.312;14.226;2023-02-01T08:12:46;5.00;99.90
75442;DHT22;64019;48.312;14.226;2023-02-01T08:15:16;5.00;99.90
75442;DHT22;64019;48.312;14.226;2023-02-01T08:17:51;4.90;99.90
75442;DHT22;64019;48.312;14.226;2023-02-01T08:20:18;4.90;99.90
75442;DHT22;64019;48.312;14.226;2023-02-01T08:22:44;4.90;99.90
75442;DHT22;64019;48.312;14.226;2023-02-01T08:25:10;5.00;99.90
75442;DHT22;64019;48.312;14.226;2023-02-01T08:27:37;4.90;99.90
75442;DHT22;64019;48.312;14.226;2023-02-01T08:30:04;4.90;99.90
75442;DHT22;64019;48.312;14.226;2023-02-01T08:32:30;4.80;99.90
75442;DHT22;64019;48.312;14.226;2023-02-01T08:34:55;4.70;99.90
75442;DHT22;64019;48.312;14.226;2023-02-01T08:37:21;4.70;99.90
75442;DHT22;64019;48.312;14.226;2023-02-01T08:39:47;4.70;99.90
75442;DHT22;64019;48.312;14.226;2023-02-01T08:42:16;4.70;99.90
75442;DHT22;64019;48.312;14.226;2023-02-01T08:45:01;4.60;99.90
75442;DHT22;64019;48.312;14.226;2023-02-01T08:47:27;4.60;99.90
75442;DHT22;64019;48.312;14.226;2023-02-01T08:49:53;4.60;99.90
75442;DHT22;64019;48.312;14.226;2023-02-01T08:52:19;4.60;99.90
75442;DHT22;64019;48.312;14.226;2023-02-01T08:54:45;4.60;99.90
75442;DHT22;64019;48.312;14.226;2023-02-01T08:57:11;4.60;99.90
75442;DHT22;64019;48.312;14.226;2023-02-01T08:59:36;4.60;99.90
75442;DHT22;64019;48.312;14.226;2023-02-01T09:02:02;4.60;99.90
75442;DHT22;64019;48.312;14.226;2023-02-01T09:04:27;4.60;99.90
75442;DHT22;64019;48.312;14.226;2023-02-01T09:06:53;4.60;99.90
75442;DHT22;64019;48.312;14.226;2023-02-01T09:09:21;4.60;99.90
75442;DHT22;64019;48.312;14.226;2023-02-01T09:11:47;4.60;99.90
75442;DHT22;64019;48.312;14.226;2023-02-01T09:14:12;4.70;99.90
75442;DHT22;64019;48.312;14.226;2023-02-01T09:16:38;4.70;99.90
75442;DHT22;64019;48.312;14.226;2023-02-01T09:19:04;4.70;99.90
75442;DHT22;64019;48.312;14.226;2023-02-01T09:21:29;4.70;99.90
75442;DHT22;64019;48.312;14.226;2023-02-01T09:23:55;4.70;99.90
75442;DHT22;64019;48.312;14.226;2023-02-01T09:26:21;4.70;99.90
75442;DHT22;64019;48.312;14.226;2023-02-01T09:28:47;4.70;99.90
75442;DHT22;64019;48.312;14.226;2023-02-01T09:31:12;4.70;99.90
75442;DHT22;64019;48.312;14.226;2023-02-01T09:33:38;4.60;99.90
75442;DHT22;64019;48.312;14.226;2023-02-01T09:36:05;4.70;99.90
75442;DHT22;64019;48.312;14.226;2023-02-01T09:38:32;4.70;99.90
75442;DHT22;64019;48.312;14.226;2023-02-01T09:40:58;4.70;99.90
75442;DHT22;64019;48.312;14.226;2023-02-01T09:43:38;4.80;99.90
75442;DHT22;64019;48.312;14.226;2023-02-01T09:46:28;4.80;99.90
75442;DHT22;64019;48.312;14.226;2023-02-01T09:48:57;4.90;99.90
75442;DHT22;64019;48.312;14.226;2023-02-01T09:51:30;4.90;99.90
75442;DHT22;64019;48.312;14.226;2023-02-01T09:54:03;5.00;99.90
75442;DHT22;64019;48.312;14.226;2023-02-01T09:56:42;5.00;99.90
75442;DHT22;64019;48.312;14.226;2023-02-01T10:01:53;5.10;99.90
75442;DHT22;64019;48.312;14.226;2023-02-01T10:04:19;5.10;99.90
75442;DHT22;64019;48.312;14.226;2023-02-01T10:07:02;5.20;99.90
75442;DHT22;64019;48.312;14.226;2023-02-01T10:26:21;4.90;99.90
75442;DHT22;64019;48.312;14.226;2023-02-01T10:28:51;4.90;99.90
75442;DHT22;64019;48.312;14.226;2023-02-01T10:31:17;4.80;99.90
75442;DHT22;64019;48.312;14.226;2023-02-01T10:34:00;4.70;99.90
75442;DHT22;64019;48.312;14.226;2023-02-01T10:39:00;4.60;99.90
75442;DHT22;64019;48.312;14.226;2023-02-01T10:41:35;4.60;99.90
75442;DHT22;64019;48.312;14.226;2023-02-01T10:44:03;4.50;99.90
75442;DHT22;64019;48.312;14.226;2023-02-01T10:46:32;4.40;99.90
75442;DHT22;64019;48.312;14.226;2023-02-01T10:49:00;4.30;99.90
75442;DHT22;64019;48.312;14.226;2023-02-01T10:51:33;4.30;99.90
75442;DHT22;64019;48.312;14.226;2023-02-01T10:54:14;4.20;99.90
75442;DHT22;64019;48.312;14.226;2023-02-01T10:56:43;4.00;99.90
75442;DHT22;64019;48.312;14.226;2023-02-01T10:59:19;3.90;99.90
75442;DHT22;64019;48.312;14.226;2023-02-01T11:01:47;3.90;99.90
75442;DHT22;64019;48.312;14.226;2023-02-01T11:04:18;3.80;99.90
75442;DHT22;64019;48.312;14.226;2023-02-01T11:06:47;3.70;99.90
75442;DHT22;64019;48.312;14.226;2023-02-01T11:09:22;3.60;99.90
75442;DHT22;64019;48.312;14.226;2023-02-01T11:14:20;3.40;99.90
75442;DHT22;64019;48.312;14.226;2023-02-01T11:16:57;3.40;99.90
75442;DHT22;64019;48.312;14.226;2023-02-01T11:19:23;3.30;99.90
75442;DHT22;64019;48.312;14.226;2023-02-01T11:21:54;3.40;99.90
75442;DHT22;64019;48.312;14.226;2023-02-01T11:24:33;3.40;99.90
75442;DHT22;64019;48.312;14.226;2023-02-01T11:27:03;3.50;99.90
75442;DHT22;64019;48.312;14.226;2023-02-01T11:29:36;3.70;99.90
75442;DHT22;64019;48.312;14.226;2023-02-01T11:32:03;3.90;99.90
75442;DHT22;64019;48.312;14.226;2023-02-01T11:34:46;4.10;99.90
75442;DHT22;64019;48.312;14.226;2023-02-01T11:39:58;4.30;99.90
75442;DHT22;64019;48.312;14.226;2023-02-01T11:42:26;4.40;99.90
75442;DHT22;64019;48.312;14.226;2023-02-01T11:45:29;4.60;99.90
75442;DHT22;64019;48.312;14.226;2023-02-01T11:47:54;4.60;99.90
75442;DHT22;64019;48.312;14.226;2023-02-01T11:50:30;4.80;99.90
75442;DHT22;64019;48.312;14.226;2023-02-01T11:55:53;4.60;99.90
75442;DHT22;64019;48.312;14.226;2023-02-01T11:58:31;4.50;99.90
75442;DHT22;64019;48.312;14.226;2023-02-01T12:06:03;4.80;99.90
75442;DHT22;64019;48.312;14.226;2023-02-01T12:16:37;4.70;99.90
75442;DHT22;64019;48.312;14.226;2023-02-01T12:22:43;4.70;99.90
75442;DHT22;64019;48.312;14.226;2023-02-01T12:27:45;4.70;99.90
75442;DHT22;64019;48.312;14.226;2023-02-01T12:36:07;4.80;99.90
75442;DHT22;64019;48.312;14.226;2023-02-01T12:44:06;4.90;99.90
75442;DHT22;64019;48.312;14.226;2023-02-01T12:47:12;4.90;99.90
75442;DHT22;64019;48.312;14.226;2023-02-01T12:52:38;5.40;99.90
75442;DHT22;64019;48.312;14.226;2023-02-01T12:55:36;5.70;99.90
75442;DHT22;64019;48.312;14.226;2023-02-01T13:00:38;5.90;99.90
75442;DHT22;64019;48.312;14.226;2023-02-01T13:03:17;5.90;99.90
75442;DHT22;64019;48.312;14.226;2023-02-01T13:06:04;6.00;99.90
75442;DHT22;64019;48.312;14.226;2023-02-01T13:08:51;5.90;99.90
75442;DHT22;64019;48.312;14.226;2023-02-01T13:11:33;5.70;99.90
75442;DHT22;64019;48.312;14.226;2023-02-01T13:14:10;5.50;99.90
75442;DHT22;64019;48.312;14.226;2023-02-01T13:16:43;5.10;99.90
75442;DHT22;64019;48.312;14.226;2023-02-01T13:22:19;3.90;99.90
75442;DHT22;64019;48.312;14.226;2023-02-01T13:24:49;3.90;99.90
75442;DHT22;64019;48.312;14.226;2023-02-01T13:27:17;3.80;99.90
75442;DHT22;64019;48.312;14.226;2023-02-01T13:44:10;3.90;99.90
75442;DHT22;64019;48.312;14.226;2023-02-01T13:46:46;3.90;99.90
75442;DHT22;64019;48.312;14.226;2023-02-01T13:49:24;4.00;99.90
75442;DHT22;64019;48.312;14.226;2023-02-01T13:51:54;4.00;99.90
75442;DHT22;64019;48.312;14.226;2023-02-01T13:56:52;4.00;99.90
75442;DHT22;64019;48.312;14.226;2023-02-01T14:05:04;4.20;99.90
75442;DHT22;64019;48.312;14.226;2023-02-01T14:07:30;4.30;99.90
75442;DHT22;64019;48.312;14.226;2023-02-01T14:09:55;4.40;99.90
75442;DHT22;64019;48.312;14.226;2023-02-01T14:12:44;4.40;99.90
75442;DHT22;64019;48.312;14.226;2023-02-01T14:15:27;4.50;99.90
75442;DHT22;64019;48.312;14.226;2023-02-01T14:17:54;4.70;99.90
75442;DHT22;64019;48.312;14.226;2023-02-01T14:20:57;4.70;99.90
75442;DHT22;64019;48.312;14.226;2023-02-01T14:23:40;4.80;99.90
75442;DHT22;64019;48.312;14.226;2023-02-01T14:26:09;4.80;99.90
75442;DHT22;64019;48.312;14.226;2023-02-01T14:28:40;4.80;99.90
75442;DHT22;64019;48.312;14.226;2023-02-01T14:36:52;5.00;99.90
75442;DHT22;64019;48.312;14.226;2023-02-01T14:39:29;4.90;99.90
75442;DHT22;64019;48.312;14.226;2023-02-01T14:42:01;5.00;99.90
75442;DHT22;64019;48.312;14.226;2023-02-01T14:44:30;5.00;99.90
75442;DHT22;64019;48.312;14.226;2023-02-01T14:52:38;5.10;99.90
75442;DHT22;64019;48.312;14.226;2023-02-01T14:55:27;5.10;99.90
75442;DHT22;64019;48.312;14.226;2023-02-01T14:57:55;5.10;99.90
75442;DHT22;64019;48.312;14.226;2023-02-01T15:00:28;5.00;99.90
75442;DHT22;64019;48.312;14.226;2023-02-01T15:02:56;5.00;99.90
75442;DHT22;64019;48.312;14.226;2023-02-01T15:05:35;5.00;99.90
75442;DHT22;64019;48.312;14.226;2023-02-01T15:08:12;5.00;99.90
75442;DHT22;64019;48.312;14.226;2023-02-01T15:10:43;5.00;99.90
75442;DHT22;64019;48.312;14.226;2023-02-01T15:13:22;5.00;99.90
75442;DHT22;64019;48.312;14.226;2023-02-01T15:16:15;5.00;99.90
75442;DHT22;64019;48.312;14.226;2023-02-01T15:18:41;5.10;99.90
75442;DHT22;64019;48.312;14.226;2023-02-01T15:21:21;5.10;99.90
75442;DHT22;64019;48.312;14.226;2023-02-01T15:23:47;5.10;99.90
75442;DHT22;64019;48.312;14.226;2023-02-01T15:26:31;5.10;99.90
75442;DHT22;64019;48.312;14.226;2023-02-01T15:28:58;5.20;99.90
75442;DHT22;64019;48.312;14.226;2023-02-01T15:31:42;5.30;99.90
75442;DHT22;64019;48.312;14.226;2023-02-01T15:34:08;5.30;99.90
75442;DHT22;64019;48.312;14.226;2023-02-01T15:36:34;5.40;99.90
75442;DHT22;64019;48.312;14.226;2023-02-01T15:39:22;5.50;99.90
75442;DHT22;64019;48.312;14.226;2023-02-01T15:41:58;5.50;99.90
75442;DHT22;64019;48.312;14.226;2023-02-01T15:44:42;5.50;99.90
75442;DHT22;64019;48.312;14.226;2023-02-01T15:47:20;5.70;99.90
75442;DHT22;64019;48.312;14.226;2023-02-01T15:49:52;5.80;99.90
75442;DHT22;64019;48.312;14.226;2023-02-01T15:54:59;5.70;99.90
75442;DHT22;64019;48.312;14.226;2023-02-01T15:57:33;5.70;99.90
75442;DHT22;64019;48.312;14.226;2023-02-01T16:00:02;5.60;99.90
75442;DHT22;64019;48.312;14.226;2023-02-01T16:02:37;5.40;99.90
75442;DHT22;64019;48.312;14.226;2023-02-01T16:05:40;5.10;99.90
75442;DHT22;64019;48.312;14.226;2023-02-01T16:08:14;5.20;99.90
75442;DHT22;64019;48.312;14.226;2023-02-01T16:10:52;5.00;99.90
75442;DHT22;64019;48.312;14.226;2023-02-01T16:13:19;4.80;99.90
75442;DHT22;64019;48.312;14.226;2023-02-01T16:15:48;4.70;99.90
75442;DHT22;64019;48.312;14.226;2023-02-01T16:18:15;4.60;99.90
75442;DHT22;64019;48.312;14.226;2023-02-01T16:20:42;4.60;99.90
75442;DHT22;64019;48.312;14.226;2023-02-01T16:23:08;4.60;99.90
75442;DHT22;64019;48.312;14.226;2023-02-01T16:25:35;4.60;99.90
75442;DHT22;64019;48.312;14.226;2023-02-01T16:28:00;4.60;99.90
75442;DHT22;64019;48.312;14.226;2023-02-01T16:30:26;4.60;99.90
75442;DHT22;64019;48.312;14.226;2023-02-01T16:32:53;4.60;99.90
75442;DHT22;64019;48.312;14.226;2023-02-01T16:35:30;4.70;99.90
75442;DHT22;64019;48.312;14.226;2023-02-01T16:38:07;4.70;99.90
75442;DHT22;64019;48.312;14.226;2023-02-01T16:40:37;4.70;99.90
75442;DHT22;64019;48.312;14.226;2023-02-01T16:43:18;4.80;99.90
75442;DHT22;64019;48.312;14.226;2023-02-01T16:45:45;4.80;99.90
75442;DHT22;64019;48.312;14.226;2023-02-01T16:48:25;4.80;99.90
75442;DHT22;64019;48.312;14.226;2023-02-01T16:50:59;4.90;99.90
75442;DHT22;64019;48.312;14.226;2023-02-01T16:53:28;4.90;99.90
75442;DHT22;64019;48.312;14.226;2023-02-01T16:55:55;5.00;99.90
75442;DHT22;64019;48.312;14.226;2023-02-01T16:58:23;5.00;99.90
75442;DHT22;64019;48.312;14.226;2023-02-01T17:00:49;5.10;99.90
75442;DHT22;64019;48.312;14.226;2023-02-01T17:03:16;5.10;99.90
75442;DHT22;64019;48.312;14.226;2023-02-01T17:06:00;5.20;99.90
75442;DHT22;64019;48.312;14.226;2023-02-01T17:08:31;5.30;99.90
75442;DHT22;64019;48.312;14.226;2023-02-01T17:10:58;5.30;99.90
75442;DHT22;64019;48.312;14.226;2023-02-01T17:13:24;5.40;99.90
75442;DHT22;64019;48.312;14.226;2023-02-01T17:18:28;5.40;99.90
75442;DHT22;64019;48.312;14.226;2023-02-01T17:20:57;5.40;99.90
75442;DHT22;64019;48.312;14.226;2023-02-01T17:23:23;5.50;99.90
75442;DHT22;64019;48.312;14.226;2023-02-01T17:25:49;5.50;99.90
75442;DHT22;64019;48.312;14.226;2023-02-01T17:28:15;5.50;99.90
75442;DHT22;64019;48.312;14.226;2023-02-01T17:30:41;5.60;99.90
75442;DHT22;64019;48.312;14.226;2023-02-01T17:33:36;5.60;99.90
75442;DHT22;64019;48.312;14.226;2023-02-01T17:36:03;5.60;99.90
75442;DHT22;64019;48.312;14.226;2023-02-01T17:38:30;5.60;99.90
75442;DHT22;64019;48.312;14.226;2023-02-01T17:40:56;5.70;99.90
75442;DHT22;64019;48.312;14.226;2023-02-01T17:43:23;5.70;99.90
75442;DHT22;64019;48.312;14.226;2023-02-01T17:45:55;5.60;99.90
75442;DHT22;64019;48.312;14.226;2023-02-01T17:48:23;5.60;99.90
75442;DHT22;64019;48.312;14.226;2023-02-01T17:50:50;5.60;99.90
75442;DHT22;64019;48.312;14.226;2023-02-01T17:53:19;5.70;99.90
75442;DHT22;64019;48.312;14.226;2023-02-01T17:55:49;5.60;99.90
75442;DHT22;64019;48.312;14.226;2023-02-01T17:58:15;5.60;99.90
75442;DHT22;64019;48.312;14.226;2023-02-01T18:00:42;5.60;99.90
75442;DHT22;64019;48.312;14.226;2023-02-01T18:03:28;5.60;99.90
75442;DHT22;64019;48.312;14.226;2023-02-01T18:05:56;5.60;99.90
75442;DHT22;64019;48.312;14.226;2023-02-01T18:08:26;5.60;99.90
75442;DHT22;64019;48.312;14.226;2023-02-01T18:10:55;5.60;99.90
75442;DHT22;64019;48.312;14.226;2023-02-01T18:13:24;5.60;99.90
75442;DHT22;64019;48.312;14.226;2023-02-01T18:15:49;5.70;99.90
75442;DHT22;64019;48.312;14.226;2023-02-01T18:18:15;5.70;99.90
75442;DHT22;64019;48.312;14.226;2023-02-01T18:20:42;5.60;99.90
75442;DHT22;64019;48.312;14.226;2023-02-01T18:23:34;5.60;99.90
75442;DHT22;64019;48.312;14.226;2023-02-01T18:26:00;5.70;99.90
75442;DHT22;64019;48.312;14.226;2023-02-01T18:28:25;5.70;99.90
75442;DHT22;64019;48.312;14.226;2023-02-01T18:30:51;5.70;99.90
75442;DHT22;64019;48.312;14.226;2023-02-01T18:33:18;5.70;99.90
75442;DHT22;64019;48.312;14.226;2023-02-01T18:35:45;5.70;99.90
75442;DHT22;64019;48.312;14.226;2023-02-01T18:38:11;5.70;99.90
75442;DHT22;64019;48.312;14.226;2023-02-01T18:40:57;5.80;99.90
75442;DHT22;64019;48.312;14.226;2023-02-01T18:43:23;5.70;99.90
75442;DHT22;64019;48.312;14.226;2023-02-01T18:45:49;5.70;99.90
75442;DHT22;64019;48.312;14.226;2023-02-01T18:48:16;5.70;99.90
75442;DHT22;64019;48.312;14.226;2023-02-01T18:50:43;5.70;99.90
75442;DHT22;64019;48.312;14.226;2023-02-01T18:53:17;5.70;99.90
75442;DHT22;64019;48.312;14.226;2023-02-01T18:55:48;5.70;99.90
75442;DHT22;64019;48.312;14.226;2023-02-01T18:58:15;5.70;99.90
75442;DHT22;64019;48.312;14.226;2023-02-01T19:00:42;5.60;99.90
75442;DHT22;64019;48.312;14.226;2023-02-01T19:03:11;5.60;99.90
75442;DHT22;64019;48.312;14.226;2023-02-01T19:05:37;5.60;99.90
75442;DHT22;64019;48.312;14.226;2023-02-01T19:08:03;5.70;99.90
75442;DHT22;64019;48.312;14.226;2023-02-01T19:10:28;5.70;99.90
75442;DHT22;64019;48.312;14.226;2023-02-01T19:12:54;5.70;99.90
75442;DHT22;64019;48.312;14.226;2023-02-01T19:15:20;5.70;99.90
75442;DHT22;64019;48.312;14.226;2023-02-01T19:17:49;5.70;99.90
75442;DHT22;64019;48.312;14.226;2023-02-01T19:20:18;5.70;99.90
75442;DHT22;64019;48.312;14.226;2023-02-01T19:22:44;5.70;99.90
75442;DHT22;64019;48.312;14.226;2023-02-01T19:25:17;5.70;99.90
75442;DHT22;64019;48.312;14.226;2023-02-01T19:27:43;5.70;99.90
75442;DHT22;64019;48.312;14.226;2023-02-01T19:30:10;5.70;99.90
75442;DHT22;64019;48.312;14.226;2023-02-01T19:32:37;5.70;99.90
75442;DHT22;64019;48.312;14.226;2023-02-01T19:35:03;5.70;99.90
75442;DHT22;64019;48.312;14.226;2023-02-01T19:37:29;5.70;99.90
75442;DHT22;64019;48.312;14.226;2023-02-01T19:39:55;5.70;99.90
75442;DHT22;64019;48.312;14.226;2023-02-01T19:42:24;5.70;99.90
75442;DHT22;64019;48.312;14.226;2023-02-01T19:44:49;5.70;99.90
75442;DHT22;64019;48.312;14.226;2023-02-01T19:47:15;5.70;99.90
75442;DHT22;64019;48.312;14.226;2023-02-01T19:49:41;5.70;99.90
75442;DHT22;64019;48.312;14.226;2023-02-01T19:52:06;5.70;99.90
75442;DHT22;64019;48.312;14.226;2023-02-01T19:54:32;5.60;99.90
75442;DHT22;64019;48.312;14.226;2023-02-01T19:56:58;5.50;99.90
75442;DHT22;64019;48.312;14.226;2023-02-01T19:59:23;5.40;99.90
75442;DHT22;64019;48.312;14.226;2023-02-01T20:01:50;5.40;99.90
75442;DHT22;64019;48.312;14.226;2023-02-01T20:04:17;5.20;99.90
75442;DHT22;64019;48.312;14.226;2023-02-01T20:06:44;5.10;99.90
75442;DHT22;64019;48.312;14.226;2023-02-01T20:09:25;5.10;99.90
75442;DHT22;64019;48.312;14.226;2023-02-01T20:11:53;5.00;99.90
75442;DHT22;64019;48.312;14.226;2023-02-01T20:14:23;5.00;99.90
75442;DHT22;64019;48.312;14.226;2023-02-01T20:16:49;5.00;99.90
75442;DHT22;64019;48.312;14.226;2023-02-01T20:19:15;5.10;99.90
75442;DHT22;64019;48.312;14.226;2023-02-01T20:21:41;5.10;99.90
75442;DHT22;64019;48.312;14.226;2023-02-01T20:24:08;5.20;99.90
75442;DHT22;64019;48.312;14.226;2023-02-01T20:26:34;5.20;99.90
75442;DHT22;64019;48.312;14.226;2023-02-01T20:29:00;5.30;99.90
75442;DHT22;64019;48.312;14.226;2023-02-01T20:31:26;5.30;99.90
75442;DHT22;64019;48.312;14.226;2023-02-01T20:33:55;5.40;99.90
75442;DHT22;64019;48.312;14.226;2023-02-01T20:36:21;5.40;99.90
75442;DHT22;64019;48.312;14.226;2023-02-01T20:38:47;5.40;99.90
75442;DHT22;64019;48.312;14.226;2023-02-01T20:41:13;5.40;99.90
75442;DHT22;64019;48.312;14.226;2023-02-01T20:43:38;5.40;99.90
75442;DHT22;64019;48.312;14.226;2023-02-01T20:46:04;5.50;99.90
75442;DHT22;64019;48.312;14.226;2023-02-01T20:48:30;5.40;99.90
75442;DHT22;64019;48.312;14.226;2023-02-01T20:50:57;5.40;99.90
75442;DHT22;64019;48.312;14.226;2023-02-01T20:53:24;5.40;99.90
75442;DHT22;64019;48.312;14.226;2023-02-01T20:55:53;5.40;99.90
75442;DHT22;64019;48.312;14.226;2023-02-01T20:58:20;5.50;99.90
75442;DHT22;64019;48.312;14.226;2023-02-01T21:00:46;5.50;99.90
75442;DHT22;64019;48.312;14.226;2023-02-01T21:03:13;5.50;99.90
75442;DHT22;64019;48.312;14.226;2023-02-01T21:05:39;5.60;99.90
75442;DHT22;64019;48.312;14.226;2023-02-01T21:08:11;5.60;99.90
75442;DHT22;64019;48.312;14.226;2023-02-01T21:10:37;5.60;99.90
75442;DHT22;64019;48.312;14.226;2023-02-01T21:13:05;5.60;99.90
75442;DHT22;64019;48.312;14.226;2023-02-01T21:15:31;5.60;99.90
75442;DHT22;64019;48.312;14.226;2023-02-01T21:17:59;5.60;99.90
75442;DHT22;64019;48.312;14.226;2023-02-01T21:20:26;5.60;99.90
75442;DHT22;64019;48.312;14.226;2023-02-01T21:22:52;5.60;99.90
75442;DHT22;64019;48.312;14.226;2023-02-01T21:25:18;5.60;99.90
75442;DHT22;64019;48.312;14.226;2023-02-01T21:27:44;5.50;99.90
75442;DHT22;64019;48.312;14.226;2023-02-01T21:30:10;5.50;99.90
75442;DHT22;64019;48.312;14.226;2023-02-01T21:32:36;5.40;99.90
75442;DHT22;64019;48.312;14.226;2023-02-01T21:35:03;5.40;99.90
75442;DHT22;64019;48.312;14.226;2023-02-01T21:37:29;5.40;99.90